sensor_id;sensor_type;location;lat;lon;timestamp;temperature;humidity
8422;DHT22;4248;48.196;10.924;2022-08-19T00:01:24;18.90;66.30
8422;DHT22;4248;48.196;10.924;2022-08-19T00:03:50;19.00;66.40
8422;DHT22;4248;48.196;10.924;2022-08-19T00:06:16;19.00;76.10
8422;DHT22;4248;48.196;10.924;2022-08-19T00:08:42;19.00;70.70
8422;DHT22;4248;48.196;10.924;2022-08-19T00:11:09;19.10;71.40
8422;DHT22;4248;48.196;10.924;2022-08-19T00:16:02;18.80;70.90
8422;DHT22;4248;48.196;10.924;2022-08-19T00:18:28;19.20;75.60
8422;DHT22;4248;48.196;10.924;2022-08-19T00:28:12;18.90;74.30
8422;DHT22;4248;48.196;10.924;2022-08-19T00:35:29;19.20;73.60
8422;DHT22;4248;48.196;10.924;2022-08-19T00:40:21;19.00;64.90
8422;DHT22;4248;48.196;10.924;2022-08-19T00:45:18;19.10;64.60
8422;DHT22;4248;48.196;10.924;2022-08-19T00:47:45;19.00;65.30
8422;DHT22;4248;48.196;10.924;2022-08-19T00:50:13;19.30;64.50
8422;DHT22;4248;48.196;10.924;2022-08-19T00:52:42;19.10;70.70
8422;DHT22;4248;48.196;10.924;2022-08-19T00:55:13;19.10;64.20
8422;DHT22;4248;48.196;10.924;2022-08-19T00:57:44;19.20;64.10
8422;DHT22;4248;48.196;10.924;2022-08-19T01:00:14;19.10;63.80
8422;DHT22;4248;48.196;10.924;2022-08-19T01:02:42;19.10;63.70
8422;DHT22;4248;48.196;10.924;2022-08-19T01:05:23;19.20;68.90
8422;DHT22;4248;48.196;10.924;2022-08-19T01:07:50;19.50;67.70
8422;DHT22;4248;48.196;10.924;2022-08-19T01:10:19;19.00;73.10
8422;DHT22;4248;48.196;10.924;2022-08-19T01:12:46;19.10;63.80
8422;DHT22;4248;48.196;10.924;2022-08-19T01:15:14;19.10;63.80
8422;DHT22;4248;48.196;10.924;2022-08-19T01:17:42;19.40;69.80
8422;DHT22;4248;48.196;10.924;2022-08-19T01:20:19;19.20;63.40
8422;DHT22;4248;48.196;10.924;2022-08-19T01:22:54;19.20;63.40
8422;DHT22;4248;48.196;10.924;2022-08-19T01:25:24;19.20;64.00
8422;DHT22;4248;48.196;10.924;2022-08-19T01:27:50;19.30;70.50
8422;DHT22;4248;48.196;10.924;2022-08-19T01:30:24;19.30;63.40
8422;DHT22;4248;48.196;10.924;2022-08-19T01:32:50;19.20;70.80
8422;DHT22;4248;48.196;10.924;2022-08-19T01:35:17;19.20;69.50
8422;DHT22;4248;48.196;10.924;2022-08-19T01:40:15;19.10;71.50
8422;DHT22;4248;48.196;10.924;2022-08-19T01:42:41;19.20;64.60
8422;DHT22;4248;48.196;10.924;2022-08-19T01:45:07;19.10;64.10
8422;DHT22;4248;48.196;10.924;2022-08-19T01:47:35;19.20;64.20
8422;DHT22;4248;48.196;10.924;2022-08-19T01:54:53;19.10;67.20
8422;DHT22;4248;48.196;10.924;2022-08-19T02:04:38;19.20;63.90
8422;DHT22;4248;48.196;10.924;2022-08-19T02:07:04;18.90;64.60
8422;DHT22;4248;48.196;10.924;2022-08-19T02:09:32;18.80;63.60
8422;DHT22;4248;48.196;10.924;2022-08-19T02:19:15;19.20;70.00
8422;DHT22;4248;48.196;10.924;2022-08-19T02:31:27;19.20;65.30
8422;DHT22;4248;48.196;10.924;2022-08-19T02:33:54;19.20;63.60
8422;DHT22;4248;48.196;10.924;2022-08-19T02:36:21;18.90;69.20
8422;DHT22;4248;48.196;10.924;2022-08-19T02:38:47;19.10;72.60
8422;DHT22;4248;48.196;10.924;2022-08-19T02:41:19;19.20;69.10
8422;DHT22;4248;48.196;10.924;2022-08-19T02:43:45;19.10;63.90
8422;DHT22;4248;48.196;10.924;2022-08-19T02:48:43;19.30;68.30
8422;DHT22;4248;48.196;10.924;2022-08-19T02:51:15;18.80;65.50
8422;DHT22;4248;48.196;10.924;2022-08-19T02:53:41;18.80;65.90
8422;DHT22;4248;48.196;10.924;2022-08-19T02:56:07;19.00;64.40
8422;DHT22;4248;48.196;10.924;2022-08-19T03:00:59;19.10;64.30
8422;DHT22;4248;48.196;10.924;2022-08-19T03:03:25;19.10;66.90
8422;DHT22;4248;48.196;10.924;2022-08-19T03:05:51;18.90;67.50
8422;DHT22;4248;48.196;10.924;2022-08-19T03:10:45;19.10;64.00
8422;DHT22;4248;48.196;10.924;2022-08-19T03:13:17;19.10;64.60
8422;DHT22;4248;48.196;10.924;2022-08-19T03:15:45;19.00;64.20
8422;DHT22;4248;48.196;10.924;2022-08-19T03:18:12;19.00;70.50
8422;DHT22;4248;48.196;10.924;2022-08-19T03:20:46;19.10;69.40
8422;DHT22;4248;48.196;10.924;2022-08-19T03:23:13;19.10;68.50
8422;DHT22;4248;48.196;10.924;2022-08-19T03:25:41;19.10;63.90
8422;DHT22;4248;48.196;10.924;2022-08-19T03:28:12;19.30;68.40
8422;DHT22;4248;48.196;10.924;2022-08-19T03:30:39;19.20;63.50
8422;DHT22;4248;48.196;10.924;2022-08-19T03:33:10;19.40;76.30
8422;DHT22;4248;48.196;10.924;2022-08-19T03:38:04;19.20;63.40
8422;DHT22;4248;48.196;10.924;2022-08-19T03:45:23;19.30;63.10
8422;DHT22;4248;48.196;10.924;2022-08-19T03:52:42;19.10;76.40
8422;DHT22;4248;48.196;10.924;2022-08-19T03:55:08;19.40;63.50
8422;DHT22;4248;48.196;10.924;2022-08-19T04:00:00;19.60;73.10
8422;DHT22;4248;48.196;10.924;2022-08-19T04:02:26;19.20;64.70
8422;DHT22;4248;48.196;10.924;2022-08-19T04:04:53;19.10;63.70
8422;DHT22;4248;48.196;10.924;2022-08-19T04:12:12;19.10;65.90
8422;DHT22;4248;48.196;10.924;2022-08-19T04:14:38;19.30;67.80
8422;DHT22;4248;48.196;10.924;2022-08-19T04:17:05;19.00;75.20
8422;DHT22;4248;48.196;10.924;2022-08-19T04:19:31;19.40;77.70
8422;DHT22;4248;48.196;10.924;2022-08-19T04:21:57;18.70;63.30
8422;DHT22;4248;48.196;10.924;2022-08-19T04:26:50;19.30;63.10
8422;DHT22;4248;48.196;10.924;2022-08-19T04:29:25;19.30;62.90
8422;DHT22;4248;48.196;10.924;2022-08-19T04:31:54;19.30;63.00
8422;DHT22;4248;48.196;10.924;2022-08-19T04:34:21;19.30;62.80
8422;DHT22;4248;48.196;10.924;2022-08-19T04:36:48;19.50;77.50
8422;DHT22;4248;48.196;10.924;2022-08-19T04:39:18;19.40;63.40
8422;DHT22;4248;48.196;10.924;2022-08-19T04:41:45;19.30;62.90
8422;DHT22;4248;48.196;10.924;2022-08-19T04:44:32;19.40;62.80
8422;DHT22;4248;48.196;10.924;2022-08-19T04:46:58;19.40;62.60
8422;DHT22;4248;48.196;10.924;2022-08-19T04:51:51;19.30;62.50
8422;DHT22;4248;48.196;10.924;2022-08-19T04:54:19;19.50;77.00
8422;DHT22;4248;48.196;10.924;2022-08-19T04:56:48;19.20;64.60
8422;DHT22;4248;48.196;10.924;2022-08-19T04:59:15;19.50;65.90
8422;DHT22;4248;48.196;10.924;2022-08-19T05:01:42;19.20;71.30
8422;DHT22;4248;48.196;10.924;2022-08-19T05:04:09;19.80;63.30
8422;DHT22;4248;48.196;10.924;2022-08-19T05:06:35;19.50;69.90
8422;DHT22;4248;48.196;10.924;2022-08-19T05:09:04;19.30;62.50
8422;DHT22;4248;48.196;10.924;2022-08-19T05:11:35;19.60;62.90
8422;DHT22;4248;48.196;10.924;2022-08-19T05:14:04;19.20;70.80
8422;DHT22;4248;48.196;10.924;2022-08-19T05:16:30;19.10;65.10
8422;DHT22;4248;48.196;10.924;2022-08-19T05:18:56;19.70;67.30
8422;DHT22;4248;48.196;10.924;2022-08-19T05:21:41;19.40;62.30
8422;DHT22;4248;48.196;10.924;2022-08-19T05:24:26;19.30;76.10
8422;DHT22;4248;48.196;10.924;2022-08-19T05:26:53;19.60;63.20
8422;DHT22;4248;48.196;10.924;2022-08-19T05:29:22;19.30;76.30
8422;DHT22;4248;48.196;10.924;2022-08-19T05:31:49;19.60;62.30
8422;DHT22;4248;48.196;10.924;2022-08-19T05:34:15;19.60;72.10
8422;DHT22;4248;48.196;10.924;2022-08-19T05:36:43;19.60;62.00
8422;DHT22;4248;48.196;10.924;2022-08-19T05:39:12;19.50;62.40
8422;DHT22;4248;48.196;10.924;2022-08-19T05:41:59;19.60;62.20
8422;DHT22;4248;48.196;10.924;2022-08-19T05:44:26;19.60;75.90
8422;DHT22;4248;48.196;10.924;2022-08-19T05:46:52;19.40;64.30
8422;DHT22;4248;48.196;10.924;2022-08-19T05:49:20;19.60;62.30
8422;DHT22;4248;48.196;10.924;2022-08-19T05:56:42;19.50;73.00
8422;DHT22;4248;48.196;10.924;2022-08-19T05:59:09;19.80;76.00
8422;DHT22;4248;48.196;10.924;2022-08-19T06:01:38;19.70;76.10
8422;DHT22;4248;48.196;10.924;2022-08-19T06:04:05;19.80;63.00
8422;DHT22;4248;48.196;10.924;2022-08-19T06:06:30;19.40;74.10
8422;DHT22;4248;48.196;10.924;2022-08-19T06:08:56;19.90;67.90
8422;DHT22;4248;48.196;10.924;2022-08-19T06:11:25;19.60;62.20
8422;DHT22;4248;48.196;10.924;2022-08-19T06:18:52;19.60;62.30
8422;DHT22;4248;48.196;10.924;2022-08-19T06:21:23;19.60;62.00
8422;DHT22;4248;48.196;10.924;2022-08-19T06:23:49;19.70;61.90
8422;DHT22;4248;48.196;10.924;2022-08-19T06:26:17;19.60;74.90
8422;DHT22;4248;48.196;10.924;2022-08-19T06:31:20;19.80;61.70
8422;DHT22;4248;48.196;10.924;2022-08-19T06:33:48;19.90;61.40
8422;DHT22;4248;48.196;10.924;2022-08-19T06:46:11;19.90;61.00
8422;DHT22;4248;48.196;10.924;2022-08-19T06:51:03;20.10;74.90
8422;DHT22;4248;48.196;10.924;2022-08-19T06:53:30;20.10;74.50
8422;DHT22;4248;48.196;10.924;2022-08-19T06:55:56;20.10;75.20
8422;DHT22;4248;48.196;10.924;2022-08-19T06:58:25;19.70;73.10
8422;DHT22;4248;48.196;10.924;2022-08-19T07:00:51;19.80;64.30
8422;DHT22;4248;48.196;10.924;2022-08-19T07:05:43;19.90;61.00
8422;DHT22;4248;48.196;10.924;2022-08-19T07:08:09;19.70;68.00
8422;DHT22;4248;48.196;10.924;2022-08-19T07:10:35;19.70;67.30
8422;DHT22;4248;48.196;10.924;2022-08-19T07:17:53;19.90;63.30
8422;DHT22;4248;48.196;10.924;2022-08-19T07:25:12;19.80;74.80
8422;DHT22;4248;48.196;10.924;2022-08-19T07:27:39;20.00;69.90
8422;DHT22;4248;48.196;10.924;2022-08-19T07:32:31;19.50;67.70
8422;DHT22;4248;48.196;10.924;2022-08-19T07:34:56;20.10;65.20
8422;DHT22;4248;48.196;10.924;2022-08-19T07:37:23;20.00;61.10
8422;DHT22;4248;48.196;10.924;2022-08-19T07:44:46;19.90;71.20
8422;DHT22;4248;48.196;10.924;2022-08-19T07:47:12;20.20;76.10
8422;DHT22;4248;48.196;10.924;2022-08-19T07:49:40;19.80;63.70
8422;DHT22;4248;48.196;10.924;2022-08-19T07:52:08;20.00;76.70
8422;DHT22;4248;48.196;10.924;2022-08-19T07:54:37;20.20;61.70
8422;DHT22;4248;48.196;10.924;2022-08-19T07:57:04;20.20;73.00
8422;DHT22;4248;48.196;10.924;2022-08-19T08:01:56;20.60;73.10
8422;DHT22;4248;48.196;10.924;2022-08-19T08:07:07;20.40;60.10
8422;DHT22;4248;48.196;10.924;2022-08-19T08:09:52;20.60;69.30
8422;DHT22;4248;48.196;10.924;2022-08-19T08:12:32;20.20;63.00
8422;DHT22;4248;48.196;10.924;2022-08-19T08:15:00;20.10;61.70
8422;DHT22;4248;48.196;10.924;2022-08-19T08:22:23;20.40;60.90
8422;DHT22;4248;48.196;10.924;2022-08-19T08:25:15;20.40;60.30
8422;DHT22;4248;48.196;10.924;2022-08-19T08:27:43;20.20;74.70
8422;DHT22;4248;48.196;10.924;2022-08-19T08:30:16;20.70;75.20
8422;DHT22;4248;48.196;10.924;2022-08-19T08:32:42;20.20;75.40
8422;DHT22;4248;48.196;10.924;2022-08-19T08:35:11;20.00;60.90
8422;DHT22;4248;48.196;10.924;2022-08-19T08:37:37;19.90;61.10
8422;DHT22;4248;48.196;10.924;2022-08-19T08:42:50;19.70;61.90
8422;DHT22;4248;48.196;10.924;2022-08-19T08:45:18;19.60;62.60
8422;DHT22;4248;48.196;10.924;2022-08-19T08:47:47;19.50;62.90
8422;DHT22;4248;48.196;10.924;2022-08-19T08:52:56;19.10;80.40
8422;DHT22;4248;48.196;10.924;2022-08-19T08:55:27;19.30;79.30
8422;DHT22;4248;48.196;10.924;2022-08-19T08:58:19;19.20;64.30
8422;DHT22;4248;48.196;10.924;2022-08-19T09:00:48;19.50;69.90
8422;DHT22;4248;48.196;10.924;2022-08-19T09:03:18;17.00;62.90
8422;DHT22;4248;48.196;10.924;2022-08-19T09:11:07;19.10;75.00
8422;DHT22;4248;48.196;10.924;2022-08-19T09:16:21;19.20;64.30
8422;DHT22;4248;48.196;10.924;2022-08-19T09:18:55;19.50;65.80
8422;DHT22;4248;48.196;10.924;2022-08-19T09:26:18;19.50;74.50
8422;DHT22;4248;48.196;10.924;2022-08-19T09:28:46;19.30;63.80
8422;DHT22;4248;48.196;10.924;2022-08-19T09:31:14;19.60;79.90
8422;DHT22;4248;48.196;10.924;2022-08-19T09:33:40;19.20;74.20
8422;DHT22;4248;48.196;10.924;2022-08-19T09:36:11;19.10;63.60
8422;DHT22;4248;48.196;10.924;2022-08-19T09:41:08;19.40;63.70
8422;DHT22;4248;48.196;10.924;2022-08-19T09:43:34;19.70;68.50
8422;DHT22;4248;48.196;10.924;2022-08-19T09:46:03;19.30;63.80
8422;DHT22;4248;48.196;10.924;2022-08-19T09:51:03;19.10;65.20
8422;DHT22;4248;48.196;10.924;2022-08-19T10:08:15;18.00;67.80
8422;DHT22;4248;48.196;10.924;2022-08-19T10:10:41;18.80;67.60
8422;DHT22;4248;48.196;10.924;2022-08-19T10:13:10;18.90;76.20
8422;DHT22;4248;48.196;10.924;2022-08-19T10:15:36;19.10;80.60
8422;DHT22;4248;48.196;10.924;2022-08-19T10:18:05;18.80;68.50
8422;DHT22;4248;48.196;10.924;2022-08-19T10:20:31;18.60;68.20
8422;DHT22;4248;48.196;10.924;2022-08-19T10:25:24;18.80;82.00
8422;DHT22;4248;48.196;10.924;2022-08-19T10:40:06;19.40;67.60
8422;DHT22;4248;48.196;10.924;2022-08-19T10:52:36;18.90;71.60
8422;DHT22;4248;48.196;10.924;2022-08-19T10:55:06;19.40;77.50
8422;DHT22;4248;48.196;10.924;2022-08-19T10:57:51;18.60;84.20
8422;DHT22;4248;48.196;10.924;2022-08-19T11:00:21;19.00;72.70
8422;DHT22;4248;48.196;10.924;2022-08-19T11:07:41;18.80;69.90
8422;DHT22;4248;48.196;10.924;2022-08-19T11:10:09;19.00;83.60
8422;DHT22;4248;48.196;10.924;2022-08-19T11:12:39;18.70;70.30
8422;DHT22;4248;48.196;10.924;2022-08-19T11:15:07;18.70;70.30
8422;DHT22;4248;48.196;10.924;2022-08-19T11:17:34;18.70;70.60
8422;DHT22;4248;48.196;10.924;2022-08-19T11:20:01;18.60;79.40
8422;DHT22;4248;48.196;10.924;2022-08-19T11:24:55;18.60;73.40
8422;DHT22;4248;48.196;10.924;2022-08-19T11:27:21;18.60;75.40
8422;DHT22;4248;48.196;10.924;2022-08-19T11:34:40;18.90;70.60
8422;DHT22;4248;48.196;10.924;2022-08-19T11:37:06;18.90;70.40
8422;DHT22;4248;48.196;10.924;2022-08-19T11:39:33;19.00;70.30
8422;DHT22;4248;48.196;10.924;2022-08-19T11:42:01;19.20;73.80
8422;DHT22;4248;48.196;10.924;2022-08-19T11:47:12;19.80;81.80
8422;DHT22;4248;48.196;10.924;2022-08-19T11:52:04;19.80;78.50
8422;DHT22;4248;48.196;10.924;2022-08-19T11:54:30;19.70;74.00
8422;DHT22;4248;48.196;10.924;2022-08-19T12:06:40;19.90;68.40
8422;DHT22;4248;48.196;10.924;2022-08-19T12:09:07;20.00;80.60
8422;DHT22;4248;48.196;10.924;2022-08-19T12:11:35;19.90;79.90
8422;DHT22;4248;48.196;10.924;2022-08-19T12:14:02;20.00;80.40
8422;DHT22;4248;48.196;10.924;2022-08-19T12:16:29;20.50;80.30
8422;DHT22;4248;48.196;10.924;2022-08-19T12:18:56;20.60;67.00
8422;DHT22;4248;48.196;10.924;2022-08-19T12:21:25;20.70;66.40
8422;DHT22;4248;48.196;10.924;2022-08-19T12:23:54;21.00;75.70
8422;DHT22;4248;48.196;10.924;2022-08-19T12:26:20;21.50;71.50
8422;DHT22;4248;48.196;10.924;2022-08-19T12:31:14;21.80;77.00
8422;DHT22;4248;48.196;10.924;2022-08-19T12:33:41;22.10;61.70
8422;DHT22;4248;48.196;10.924;2022-08-19T12:36:09;22.10;61.80
8422;DHT22;4248;48.196;10.924;2022-08-19T12:38:36;22.10;61.30
8422;DHT22;4248;48.196;10.924;2022-08-19T12:41:03;22.30;63.30
8422;DHT22;4248;48.196;10.924;2022-08-19T12:50:49;22.70;63.90
8422;DHT22;4248;48.196;10.924;2022-08-19T12:55:42;22.50;57.60
8422;DHT22;4248;48.196;10.924;2022-08-19T13:03:03;22.80;65.00
8422;DHT22;4248;48.196;10.924;2022-08-19T13:05:31;22.90;55.80
8422;DHT22;4248;48.196;10.924;2022-08-19T13:07:59;22.80;68.50
8422;DHT22;4248;48.196;10.924;2022-08-19T13:10:32;22.80;55.40
8422;DHT22;4248;48.196;10.924;2022-08-19T13:13:02;22.70;67.20
8422;DHT22;4248;48.196;10.924;2022-08-19T13:17:57;23.10;53.70
8422;DHT22;4248;48.196;10.924;2022-08-19T13:20:24;23.30;61.80
8422;DHT22;4248;48.196;10.924;2022-08-19T13:27:45;22.70;53.50
8422;DHT22;4248;48.196;10.924;2022-08-19T13:30:13;22.40;54.40
8422;DHT22;4248;48.196;10.924;2022-08-19T13:38:02;21.70;58.20
8422;DHT22;4248;48.196;10.924;2022-08-19T13:42:56;21.60;59.40
8422;DHT22;4248;48.196;10.924;2022-08-19T13:45:24;21.60;56.30
8422;DHT22;4248;48.196;10.924;2022-08-19T13:47:52;21.40;56.90
8422;DHT22;4248;48.196;10.924;2022-08-19T13:50:21;21.50;56.50
8422;DHT22;4248;48.196;10.924;2022-08-19T13:55:15;21.00;62.90
8422;DHT22;4248;48.196;10.924;2022-08-19T14:00:13;21.30;65.90
8422;DHT22;4248;48.196;10.924;2022-08-19T14:02:40;21.20;58.60
8422;DHT22;4248;48.196;10.924;2022-08-19T14:05:08;21.00;59.00
8422;DHT22;4248;48.196;10.924;2022-08-19T14:10:02;20.90;69.90
8422;DHT22;4248;48.196;10.924;2022-08-19T14:12:28;21.00;63.10
8422;DHT22;4248;48.196;10.924;2022-08-19T14:14:53;21.00;66.00
8422;DHT22;4248;48.196;10.924;2022-08-19T14:24:37;20.50;60.30
8422;DHT22;4248;48.196;10.924;2022-08-19T14:27:05;20.30;63.20
8422;DHT22;4248;48.196;10.924;2022-08-19T14:34:25;20.00;61.90
8422;DHT22;4248;48.196;10.924;2022-08-19T14:39:17;20.00;76.40
8422;DHT22;4248;48.196;10.924;2022-08-19T14:44:10;20.30;74.80
8422;DHT22;4248;48.196;10.924;2022-08-19T14:46:38;20.00;69.30
8422;DHT22;4248;48.196;10.924;2022-08-19T14:51:30;19.80;75.10
8422;DHT22;4248;48.196;10.924;2022-08-19T14:53:56;20.00;77.50
8422;DHT22;4248;48.196;10.924;2022-08-19T14:56:25;20.10;63.40
8422;DHT22;4248;48.196;10.924;2022-08-19T14:58:51;20.10;63.40
8422;DHT22;4248;48.196;10.924;2022-08-19T15:01:18;20.10;63.20
8422;DHT22;4248;48.196;10.924;2022-08-19T15:03:46;20.10;63.20
8422;DHT22;4248;48.196;10.924;2022-08-19T15:08:39;19.90;77.90
8422;DHT22;4248;48.196;10.924;2022-08-19T15:11:14;19.90;63.40
8422;DHT22;4248;48.196;10.924;2022-08-19T15:13:41;19.80;63.30
8422;DHT22;4248;48.196;10.924;2022-08-19T15:21:00;19.70;68.70
8422;DHT22;4248;48.196;10.924;2022-08-19T15:25:53;20.30;78.00
8422;DHT22;4248;48.196;10.924;2022-08-19T15:28:24;19.70;71.30
8422;DHT22;4248;48.196;10.924;2022-08-19T15:35:43;19.80;63.70
8422;DHT22;4248;48.196;10.924;2022-08-19T15:38:09;19.90;64.10
8422;DHT22;4248;48.196;10.924;2022-08-19T15:48:00;19.90;64.20
8422;DHT22;4248;48.196;10.924;2022-08-19T15:50:26;19.90;75.80
8422;DHT22;4248;48.196;10.924;2022-08-19T15:55:26;19.90;64.20
8422;DHT22;4248;48.196;10.924;2022-08-19T15:57:52;19.50;75.30
8422;DHT22;4248;48.196;10.924;2022-08-19T16:03:21;19.70;80.80
8422;DHT22;4248;48.196;10.924;2022-08-19T16:09:00;19.70;66.10
8422;DHT22;4248;48.196;10.924;2022-08-19T16:11:30;19.70;65.80
8422;DHT22;4248;48.196;10.924;2022-08-19T16:13:57;19.60;79.70
8422;DHT22;4248;48.196;10.924;2022-08-19T16:16:33;20.10;71.10
8422;DHT22;4248;48.196;10.924;2022-08-19T16:19:02;19.90;65.00
8422;DHT22;4248;48.196;10.924;2022-08-19T16:21:30;20.20;77.00
8422;DHT22;4248;48.196;10.924;2022-08-19T16:23:59;19.80;65.70
8422;DHT22;4248;48.196;10.924;2022-08-19T16:26:25;19.80;66.70
8422;DHT22;4248;48.196;10.924;2022-08-19T16:28:54;19.80;65.60
8422;DHT22;4248;48.196;10.924;2022-08-19T16:31:21;19.50;65.80
8422;DHT22;4248;48.196;10.924;2022-08-19T16:41:05;19.50;73.70
8422;DHT22;4248;48.196;10.924;2022-08-19T16:43:31;19.30;67.00
8422;DHT22;4248;48.196;10.924;2022-08-19T16:48:25;19.10;73.60
8422;DHT22;4248;48.196;10.924;2022-08-19T16:50:52;19.30;70.30
8422;DHT22;4248;48.196;10.924;2022-08-19T16:53:20;19.50;70.50
8422;DHT22;4248;48.196;10.924;2022-08-19T16:55:47;19.10;67.60
8422;DHT22;4248;48.196;10.924;2022-08-19T16:58:16;19.30;68.80
8422;DHT22;4248;48.196;10.924;2022-08-19T17:03:10;18.30;68.10
8422;DHT22;4248;48.196;10.924;2022-08-19T17:05:46;18.90;69.90
8422;DHT22;4248;48.196;10.924;2022-08-19T17:08:14;19.20;80.70
8422;DHT22;4248;48.196;10.924;2022-08-19T17:10:42;19.00;80.00
8422;DHT22;4248;48.196;10.924;2022-08-19T17:18:05;18.90;67.30
8422;DHT22;4248;48.196;10.924;2022-08-19T17:20:32;19.10;78.80
8422;DHT22;4248;48.196;10.924;2022-08-19T17:22:58;18.80;67.50
8422;DHT22;4248;48.196;10.924;2022-08-19T17:25:26;18.80;67.60
8422;DHT22;4248;48.196;10.924;2022-08-19T17:27:52;18.50;73.00
8422;DHT22;4248;48.196;10.924;2022-08-19T17:30:19;18.60;72.80
8422;DHT22;4248;48.196;10.924;2022-08-19T17:32:45;18.80;70.10
8422;DHT22;4248;48.196;10.924;2022-08-19T17:35:12;18.60;68.20
8422;DHT22;4248;48.196;10.924;2022-08-19T17:40:07;18.40;80.30
8422;DHT22;4248;48.196;10.924;2022-08-19T17:42:33;18.10;69.50
8422;DHT22;4248;48.196;10.924;2022-08-19T17:47:27;18.50;68.20
8422;DHT22;4248;48.196;10.924;2022-08-19T17:49:53;17.90;70.30
8422;DHT22;4248;48.196;10.924;2022-08-19T17:57:11;18.20;68.90
8422;DHT22;4248;48.196;10.924;2022-08-19T18:02:06;17.80;77.30
8422;DHT22;4248;48.196;10.924;2022-08-19T18:04:33;17.90;73.80
8422;DHT22;4248;48.196;10.924;2022-08-19T18:06:59;17.70;78.50
8422;DHT22;4248;48.196;10.924;2022-08-19T18:09:35;17.80;70.80
8422;DHT22;4248;48.196;10.924;2022-08-19T18:12:01;17.70;73.80
8422;DHT22;4248;48.196;10.924;2022-08-19T18:14:32;17.80;70.60
8422;DHT22;4248;48.196;10.924;2022-08-19T18:16:59;18.00;71.00
8422;DHT22;4248;48.196;10.924;2022-08-19T18:19:25;18.10;80.90
8422;DHT22;4248;48.196;10.924;2022-08-19T18:21:52;17.60;80.70
8422;DHT22;4248;48.196;10.924;2022-08-19T18:24:18;17.70;79.50
8422;DHT22;4248;48.196;10.924;2022-08-19T18:29:10;17.80;72.30
8422;DHT22;4248;48.196;10.924;2022-08-19T18:34:04;17.80;70.80
8422;DHT22;4248;48.196;10.924;2022-08-19T18:36:30;17.80;70.60
8422;DHT22;4248;48.196;10.924;2022-08-19T18:38:57;17.90;76.50
8422;DHT22;4248;48.196;10.924;2022-08-19T18:41:41;17.90;80.80
8422;DHT22;4248;48.196;10.924;2022-08-19T18:44:25;17.50;70.90
8422;DHT22;4248;48.196;10.924;2022-08-19T18:47:10;17.70;79.30
8422;DHT22;4248;48.196;10.924;2022-08-19T18:52:20;17.70;70.60
8422;DHT22;4248;48.196;10.924;2022-08-19T18:54:50;17.80;70.70
8422;DHT22;4248;48.196;10.924;2022-08-19T18:57:16;17.70;81.20
8422;DHT22;4248;48.196;10.924;2022-08-19T18:59:43;17.60;74.70
8422;DHT22;4248;48.196;10.924;2022-08-19T19:12:03;17.80;70.60
8422;DHT22;4248;48.196;10.924;2022-08-19T19:14:34;17.80;70.50
8422;DHT22;4248;48.196;10.924;2022-08-19T19:17:01;17.70;76.40
8422;DHT22;4248;48.196;10.924;2022-08-19T19:19:29;18.00;77.70
8422;DHT22;4248;48.196;10.924;2022-08-19T19:21:55;17.90;74.00
8422;DHT22;4248;48.196;10.924;2022-08-19T19:24:26;17.80;79.80
8422;DHT22;4248;48.196;10.924;2022-08-19T19:26:56;18.00;69.60
8422;DHT22;4248;48.196;10.924;2022-08-19T19:31:48;17.90;80.10
8422;DHT22;4248;48.196;10.924;2022-08-19T19:34:19;18.00;70.00
8422;DHT22;4248;48.196;10.924;2022-08-19T19:36:49;17.80;80.70
8422;DHT22;4248;48.196;10.924;2022-08-19T19:39:16;17.90;70.50
8422;DHT22;4248;48.196;10.924;2022-08-19T19:41:42;17.90;70.70
8422;DHT22;4248;48.196;10.924;2022-08-19T19:49:02;18.00;83.50
8422;DHT22;4248;48.196;10.924;2022-08-19T19:51:28;17.70;83.30
8422;DHT22;4248;48.196;10.924;2022-08-19T19:53:53;17.70;83.60
8422;DHT22;4248;48.196;10.924;2022-08-19T19:56:20;17.90;71.30
8422;DHT22;4248;48.196;10.924;2022-08-19T19:58:47;18.00;80.50
8422;DHT22;4248;48.196;10.924;2022-08-19T20:01:15;16.70;70.70
8422;DHT22;4248;48.196;10.924;2022-08-19T20:03:42;17.80;71.80
8422;DHT22;4248;48.196;10.924;2022-08-19T20:06:10;17.80;72.10
8422;DHT22;4248;48.196;10.924;2022-08-19T20:08:35;18.20;76.50
8422;DHT22;4248;48.196;10.924;2022-08-19T20:11:33;17.80;72.40
8422;DHT22;4248;48.196;10.924;2022-08-19T20:14:04;17.80;72.90
8422;DHT22;4248;48.196;10.924;2022-08-19T20:16:31;17.80;73.60
8422;DHT22;4248;48.196;10.924;2022-08-19T20:18:58;17.60;74.30
8422;DHT22;4248;48.196;10.924;2022-08-19T20:21:27;17.90;77.30
8422;DHT22;4248;48.196;10.924;2022-08-19T20:26:23;17.80;72.90
8422;DHT22;4248;48.196;10.924;2022-08-19T20:28:49;18.00;86.00
8422;DHT22;4248;48.196;10.924;2022-08-19T20:31:16;17.90;73.50
8422;DHT22;4248;48.196;10.924;2022-08-19T20:38:34;18.10;79.70
8422;DHT22;4248;48.196;10.924;2022-08-19T20:41:02;18.20;85.50
8422;DHT22;4248;48.196;10.924;2022-08-19T20:43:29;18.00;72.80
8422;DHT22;4248;48.196;10.924;2022-08-19T20:53:19;17.80;74.10
8422;DHT22;4248;48.196;10.924;2022-08-19T20:55:46;17.90;72.50
8422;DHT22;4248;48.196;10.924;2022-08-19T20:58:20;17.90;72.30
8422;DHT22;4248;48.196;10.924;2022-08-19T21:00:47;18.00;73.80
8422;DHT22;4248;48.196;10.924;2022-08-19T21:03:17;18.00;72.50
8422;DHT22;4248;48.196;10.924;2022-08-19T21:17:57;18.30;74.30
8422;DHT22;4248;48.196;10.924;2022-08-19T21:20:22;17.90;81.80
8422;DHT22;4248;48.196;10.924;2022-08-19T21:22:48;18.00;82.00
8422;DHT22;4248;48.196;10.924;2022-08-19T21:25:15;18.00;71.70
8422;DHT22;4248;48.196;10.924;2022-08-19T21:27:41;17.90;84.40
8422;DHT22;4248;48.196;10.924;2022-08-19T21:30:07;18.10;72.10
8422;DHT22;4248;48.196;10.924;2022-08-19T21:34:59;18.20;72.60
8422;DHT22;4248;48.196;10.924;2022-08-19T21:39:54;17.80;71.80
8422;DHT22;4248;48.196;10.924;2022-08-19T21:42:21;18.00;71.80
8422;DHT22;4248;48.196;10.924;2022-08-19T21:44:46;18.10;79.40
8422;DHT22;4248;48.196;10.924;2022-08-19T21:47:12;18.00;84.30
8422;DHT22;4248;48.196;10.924;2022-08-19T21:52:04;18.00;72.20
8422;DHT22;4248;48.196;10.924;2022-08-19T21:54:31;17.90;72.10
8422;DHT22;4248;48.196;10.924;2022-08-19T21:56:58;18.20;76.80
8422;DHT22;4248;48.196;10.924;2022-08-19T21:59:23;18.10;85.90
8422;DHT22;4248;48.196;10.924;2022-08-19T22:04:17;18.00;79.80
8422;DHT22;4248;48.196;10.924;2022-08-19T22:06:42;17.70;80.30
8422;DHT22;4248;48.196;10.924;2022-08-19T22:14:01;17.80;82.10
8422;DHT22;4248;48.196;10.924;2022-08-19T22:18:53;18.10;85.20
8422;DHT22;4248;48.196;10.924;2022-08-19T22:21:20;18.10;85.30
8422;DHT22;4248;48.196;10.924;2022-08-19T22:26:14;17.90;72.30
8422;DHT22;4248;48.196;10.924;2022-08-19T22:28:40;18.10;85.80
8422;DHT22;4248;48.196;10.924;2022-08-19T22:31:07;17.90;72.30
8422;DHT22;4248;48.196;10.924;2022-08-19T22:33:34;17.90;72.30
8422;DHT22;4248;48.196;10.924;2022-08-19T22:36:01;18.10;77.60
8422;DHT22;4248;48.196;10.924;2022-08-19T22:40:53;17.70;84.20
8422;DHT22;4248;48.196;10.924;2022-08-19T22:43:29;17.60;73.30
8422;DHT22;4248;48.196;10.924;2022-08-19T22:45:57;17.80;74.10
8422;DHT22;4248;48.196;10.924;2022-08-19T22:48:26;17.90;72.40
8422;DHT22;4248;48.196;10.924;2022-08-19T22:50:53;17.90;72.30